Airfield :
LOGIN :

Register | Disclaimer

   EN    FR    IT 

 










Legend :    VFR   Marginal VFR   IFR   Intensive IFR   Very Intensive IFR
Visi :
Ceiling :
>= 8 km
>= 3000ft
5 to 8 km
1000 to 3000 ft
1500m to 5 km
500 to 1000 ft
800 to 1500m
200 to 500 ft
< 800m
< 200 ft
Symbols :   Thunderstorms  Fog  Heavy snow  Heavy precipitations  Wind > 20 kt
SIGMETs :     Misc.  Thunderstorms  Icing  Turbulence  Mountain Waves  Volcanic Ashes






- Airport Elevation : 1247 ft
- IATA code : PRG


LKPR - Praha Ruzyne

CURRENT METAR :
  • 181930Z 28011KT 9999 FEW043 10/06 Q1012 NOSIG

EXPIRED METARs :
  • 181900Z 27008KT 9999 -SHRA FEW043 10/07 Q1012 NOSIG
  • 181851Z 26007KT 9999 -SHRA FEW047 10/07 Q1012 RMK REG QNH 1009
  • 181830Z 27008KT 9999 FEW033 10/06 Q1012 TEMPO 4000 SHRA
  • 181800Z 26010KT 9999 FEW033 11/07 Q1012 TEMPO 4000 SHRA
  • 181730Z 25010KT 9999 FEW035 13/07 Q1012 NOSIG
  • 181700Z 23012KT 9999 FEW046CB 13/07 Q1012 NOSIG

TAF TAF LKPR
Valid from the 18 at 12:00 until the 19 at 18:00 UTC


181100Z 1812/1918 29012KT 9999 BKN035
TEMPO 1812/1822 8000 SHRA SCT030TCU
PROB40
TEMPO 1812/1819 32014G28KT 3000 TSRA BKN020CB
TEMPO 1906/1918 8000 SHRA SCT027TCU
BECMG 1909/1911 01010KT
PROB30
TEMPO 1910/1918 3000 TSRA SCT020CB



MET'MAP, your aeronautical weather chart ! - Copyright ORBIFLY December 2007 - Disclaimer

ORBIFLY MET'MAP TEAM :

Programming & Development : Alexandra Zaïnal
Concept & original design : Baudouin d'Aumeries
Assistance for programming : Marc-Olivier Méhu
Technical & hardware support : Manuel Goepfert

Contact : metmap@orbifly.com




SOURCES & CREDITS :

   NOAA